Westgard — PDBQ — position and weather

sailwx.info

Track history (hours):
 
Tides and Currents Weather Stations Pressure Air Temp Water Temp Dewpoint Dewpoint Depression Visibility Wind Speed Wind Dir Waves Ship Positions

Westgard

Last reported at 2014-Jul-30 00:28 UTC. Time now 2014-Jul-30 01:05 UTC.
Position N 60°01' E 023°56'.

Length 89 m; draft 5.9 m.

Type: Ship. MMSI: 246457000.

Date/timePositionNaut miles runAvg speedWind from/ knotsBaromVisibWave heightAir tempDewpointWater temp
2014-Jul-30 00:28N 60°01' E 023°56'14 0.6
2014-Jul-29 02:06N 59°48' E 023°60'710.8
2014-Jul-29 01:28N 59°44' E 023°48'1011.1
2014-Jul-29 00:32N 59°39' E 023°30'21810.8
2014-Jul-28 04:21N 57°01' E 018°46'911.1
2014-Jul-28 03:33N 56°54' E 018°35'1310.9
2014-Jul-28 02:22N 56°45' E 018°19'911.0
2014-Jul-28 01:33N 56°39' E 018°06'6911.1
2014-Jul-27 19:21N 55°58' E 016°27'1910.7
2014-Jul-27 17:33N 55°48' E 015°58'1110.5
2014-Jul-27 16:33N 55°43' E 015°41'1110.8
2014-Jul-27 15:33N 55°37' E 015°25'1111.0
2014-Jul-27 14:33N 55°32' E 015°08'1110.9
2014-Jul-27 13:33N 55°27' E 014°51'1110.9
2014-Jul-27 12:33N 55°20' E 014°36'1111.1
2014-Jul-27 11:33N 55°12' E 014°24'3410.8
2014-Jul-27 08:25N 54°52' E 013°35'1111.0
2014-Jul-27 07:27N 54°48' E 013°18'1010.9
2014-Jul-27 06:33N 54°44' E 013°02'1110.7
2014-Jul-27 05:33N 54°40' E 012°45'1110.6
2014-Jul-27 04:31N 54°35' E 012°29'9 9.8
2014-Jul-27 03:33N 54°29' E 012°16'9 9.0
2014-Jul-27 02:32N 54°25' E 012°02'1010.6
2014-Jul-27 01:33N 54°25' E 011°44'1111.1
2014-Jul-27 00:33N 54°30' E 011°27'1010.2
2014-Jul-26 23:33N 54°34' E 011°11'69 7.4
2014-Jul-26 14:15N 54°08' E 009°20'6 3.4
2014-Jul-26 12:30N 54°02' E 009°18'5 4.8
2014-Jul-26 11:33N 53°58' E 009°16'6 6.1
2014-Jul-26 10:33N 53°54' E 009°09'2 1.6
2014-Jul-26 09:33N 53°53' E 009°06'8 8.2
2014-Jul-26 08:33N 53°50' E 008°53'1110.6
2014-Jul-26 07:33N 53°57' E 008°39'1111.0
2014-Jul-26 06:33N 53°59' E 008°20'1010.4
2014-Jul-26 05:33N 53°59' E 008°03'48 9.6
2014-Jul-26 00:31N 53°47' E 006°43'9 9.6
2014-Jul-25 23:33N 53°45' E 006°28'1010.1
2014-Jul-25 22:33N 53°42' E 006°11'1010.5
2014-Jul-25 21:33N 53°39' E 005°55'1110.8
2014-Jul-25 20:33N 53°35' E 005°37'1110.9
2014-Jul-25 19:33N 53°32' E 005°20'1111.0
2014-Jul-25 18:33N 53°28' E 005°03'1111.4
2014-Jul-25 17:33N 53°23' E 004°45'3612.2
2014-Jul-25 14:33N 52°52' E 004°15'1111.1
2014-Jul-25 13:33N 52°43' E 004°04'1610.8
2014-Jul-25 12:05N 52°31' E 003°46'610.9
2014-Jul-25 11:33N 52°27' E 003°40'39 9.8
2014-Jul-25 07:32N 51°50' E 003°19'8 8.4
2014-Jul-25 06:33N 51°41' E 003°18'1010.3
2014-Jul-25 05:32N 51°32' E 003°26'9 9.7
2014-Jul-25 04:34N 51°26' E 003°38'1111.5
2014-Jul-25 03:33N 51°22' E 003°55'8 7.8
2014-Jul-25 02:33N 51°22' E 004°07'8 7.9
2014-Jul-25 01:34N 51°18' E 004°18'2 2.0
2014-Jul-25 00:34N 51°17' E 004°20'1 1.3
2014-Jul-24 23:31N 51°16' E 004°22'0 0.0
2014-Jul-24 22:28N 51°16' E 004°22'0 0.0
2014-Jul-24 21:31N 51°16' E 004°22'0 0.0
2014-Jul-24 20:31N 51°16' E 004°22'0 0.2
2014-Jul-24 19:33N 51°16' E 004°22'0 0.0
2014-Jul-24 18:33N 51°16' E 004°22'0 0.0
2014-Jul-24 17:33N 51°16' E 004°22'0 0.0
2014-Jul-24 16:33N 51°16' E 004°22'0 0.0
2014-Jul-24 15:33N 51°16' E 004°22'0 0.0
2014-Jul-24 14:30N 51°16' E 004°22'0 0.0
2014-Jul-24 13:33N 51°16' E 004°22'0 0.0
2014-Jul-24 12:33N 51°16' E 004°22'0 0.2
2014-Jul-24 11:33N 51°16' E 004°22'2 2.1
2014-Jul-24 10:33N 51°15' E 004°24'0 0.0
2014-Jul-24 09:33N 51°15' E 004°24'0 0.0
2014-Jul-24 08:33N 51°15' E 004°24'0 0.0
2014-Jul-24 07:33N 51°15' E 004°24'0 0.0
2014-Jul-24 06:33N 51°15' E 004°24'0 0.0
2014-Jul-24 05:33N 51°15' E 004°24'0 0.0
2014-Jul-24 04:33N 51°15' E 004°24'0 0.0
2014-Jul-24 03:30N 51°15' E 004°24'0 0.0
2014-Jul-24 02:33N 51°15' E 004°24'0 0.0
2014-Jul-24 01:33N 51°15' E 004°24'0 0.0
2014-Jul-24 00:33N 51°15' E 004°24'0 0.0
2014-Jul-23 23:32N 51°15' E 004°24'0 0.0
2014-Jul-23 22:32N 51°15' E 004°24'0 0.0
2014-Jul-23 21:32N 51°15' E 004°24'0 0.0
2014-Jul-23 19:32N 51°15' E 004°24'0 0.0
2014-Jul-23 18:32N 51°15' E 004°24'0 0.0
2014-Jul-23 17:32N 51°15' E 004°24'0 0.0
2014-Jul-23 16:32N 51°15' E 004°24'0 0.0
2014-Jul-23 15:32N 51°15' E 004°24'0 0.0
2014-Jul-23 14:32N 51°15' E 004°24'0 0.0
2014-Jul-23 13:32N 51°15' E 004°24'0 0.0
2014-Jul-23 12:32N 51°15' E 004°24'0 0.0
2014-Jul-23 11:32N 51°15' E 004°24'0 0.0
2014-Jul-23 10:32N 51°15' E 004°24'0 0.0
2014-Jul-23 09:32N 51°15' E 004°24'0 0.0
2014-Jul-23 08:32N 51°15' E 004°24'0 0.0
2014-Jul-23 07:32N 51°15' E 004°24'0 0.0
2014-Jul-23 06:32N 51°15' E 004°24'0 0.0
2014-Jul-23 05:32N 51°15' E 004°24'0 0.0
2014-Jul-23 04:32N 51°15' E 004°24'0 0.0
2014-Jul-23 03:32N 51°15' E 004°24'0 0.0
2014-Jul-23 02:32N 51°15' E 004°24'0 0.0
2014-Jul-23 01:33N 51°15' E 004°24'5 4.8
2014-Jul-23 00:33N 51°19' E 004°19'2 2.5
2014-Jul-22 23:34N 51°21' E 004°17'1 0.7
2014-Jul-22 22:34N 51°21' E 004°16'9 9.0
2014-Jul-22 21:34N 51°23' E 004°02'10 9.6
2014-Jul-22 20:34N 51°21' E 003°47'1212.0
2014-Jul-22 19:34N 51°25' E 003°29'1312.6
2014-Jul-22 18:33N 51°24' E 003°09'1110.7
2014-Jul-22 17:34N 51°22' E 002°52'11 9.4
2014-Jul-22 16:20N 51°20' E 002°34'1 1.0
2014-Jul-22 15:33N 51°20' E 002°33'0 0.0
2014-Jul-22 14:33N 51°20' E 002°33'0 0.0
2014-Jul-22 13:33N 51°20' E 002°33'0 0.0
2014-Jul-22 12:33N 51°20' E 002°33'0 0.0
2014-Jul-22 11:32N 51°20' E 002°33'0 0.0
2014-Jul-22 10:32N 51°20' E 002°33'0 0.0
2014-Jul-22 09:32N 51°20' E 002°33'0 0.0
2014-Jul-22 08:32N 51°20' E 002°33'5 4.9
2014-Jul-22 07:32N 51°20' E 002°25'1111.1
2014-Jul-22 06:34N 51°15' E 002°11'1111.0
2014-Jul-22 05:33N 51°09' E 001°55'1010.3
2014-Jul-22 04:33N 51°02' E 001°43'4610.3
2014-Jul-22 00:07N 50°26' E 000°59'5511.3
2014-Jul-21 19:16N 49°44' E 000°04'811.8
2014-Jul-21 18:33N 49°36' W 000°00'10 9.7
2014-Jul-21 17:33N 49°27' E 000°03'8 7.4
2014-Jul-21 16:32N 49°26' E 000°14'0 0.0
2014-Jul-21 15:32N 49°26' E 000°14'0 0.0
2014-Jul-21 14:32N 49°26' E 000°14'0 0.0
2014-Jul-21 13:32N 49°26' E 000°14'0 0.0
2014-Jul-21 12:32N 49°26' E 000°14'0 0.0
2014-Jul-21 11:32N 49°26' E 000°14'0 0.0
2014-Jul-21 10:14N 49°26' E 000°14'0 0.0
2014-Jul-21 09:32N 49°26' E 000°14'0 0.0
2014-Jul-21 08:14N 49°26' E 000°14'0 0.0
2014-Jul-21 07:26N 49°26' E 000°14'0 0.0
2014-Jul-21 06:29N 49°26' E 000°14'0 0.0
2014-Jul-21 05:32N 49°26' E 000°14'0 0.0
2014-Jul-21 04:23N 49°26' E 000°14'0 0.0
2014-Jul-21 03:32N 49°26' E 000°14'0 0.0
2014-Jul-21 02:17N 49°26' E 000°14'0 0.0
2014-Jul-21 01:32N 49°26' E 000°14'0 0.0
2014-Jul-21 00:26N 49°26' E 000°14'0 0.0
2014-Jul-20 23:20N 49°26' E 000°14'0 0.0
2014-Jul-20 22:29N 49°26' E 000°14'0 0.0
2014-Jul-20 20:10N 49°26' E 000°14'0 0.0
2014-Jul-20 19:31N 49°26' E 000°14'0 0.0
2014-Jul-20 18:10N 49°26' E 000°14'0 0.0
2014-Jul-20 17:19N 49°26' E 000°14'0 0.0
2014-Jul-20 16:22N 49°26' E 000°14'0 0.0
2014-Jul-20 15:28N 49°26' E 000°14'0 0.0
2014-Jul-20 14:28N 49°26' E 000°14'0 0.0
2014-Jul-20 13:33N 49°26' E 000°14'6 6.4
2014-Jul-20 12:33N 49°26' E 000°05'8 8.1
2014-Jul-20 11:33N 49°30' W 000°07'63 9.0
2014-Jul-20 04:33N 50°31' E 000°20'10 9.5
2014-Jul-20 03:31N 50°33' E 000°35'9 9.3
2014-Jul-20 02:33N 50°39' E 000°46'  
Track history (hours):
 
Tides and Currents Weather Stations Pressure Air Temp Water Temp Dewpoint Dewpoint Depression Visibility Wind Speed Wind Dir Waves Ship Positions

Westgard

Last reported at 2014-Jul-30 00:28 UTC. Time now 2014-Jul-30 01:05 UTC.
Position N 60°01' E 023°56'.

Length 89 m; draft 5.9 m.

Type: Ship. MMSI: 246457000.

Date/timePositionNaut miles runAvg speedWind from/ knotsBaromVisibWave heightAir tempDewpointWater temp
2014-Jul-30 00:28N 60°01' E 023°56'14 0.6
2014-Jul-29 02:06N 59°48' E 023°60'710.8
2014-Jul-29 01:28N 59°44' E 023°48'1011.1
2014-Jul-29 00:32N 59°39' E 023°30'21810.8
2014-Jul-28 04:21N 57°01' E 018°46'911.1
2014-Jul-28 03:33N 56°54' E 018°35'1310.9
2014-Jul-28 02:22N 56°45' E 018°19'911.0
2014-Jul-28 01:33N 56°39' E 018°06'6911.1
2014-Jul-27 19:21N 55°58' E 016°27'1910.7
2014-Jul-27 17:33N 55°48' E 015°58'1110.5
2014-Jul-27 16:33N 55°43' E 015°41'1110.8
2014-Jul-27 15:33N 55°37' E 015°25'1111.0
2014-Jul-27 14:33N 55°32' E 015°08'1110.9
2014-Jul-27 13:33N 55°27' E 014°51'1110.9
2014-Jul-27 12:33N 55°20' E 014°36'1111.1
2014-Jul-27 11:33N 55°12' E 014°24'3410.8
2014-Jul-27 08:25N 54°52' E 013°35'1111.0
2014-Jul-27 07:27N 54°48' E 013°18'1010.9
2014-Jul-27 06:33N 54°44' E 013°02'1110.7
2014-Jul-27 05:33N 54°40' E 012°45'1110.6
2014-Jul-27 04:31N 54°35' E 012°29'9 9.8
2014-Jul-27 03:33N 54°29' E 012°16'9 9.0
2014-Jul-27 02:32N 54°25' E 012°02'1010.6
2014-Jul-27 01:33N 54°25' E 011°44'1111.1
2014-Jul-27 00:33N 54°30' E 011°27'1010.2
2014-Jul-26 23:33N 54°34' E 011°11'69 7.4
2014-Jul-26 14:15N 54°08' E 009°20'6 3.4
2014-Jul-26 12:30N 54°02' E 009°18'5 4.8
2014-Jul-26 11:33N 53°58' E 009°16'6 6.1
2014-Jul-26 10:33N 53°54' E 009°09'2 1.6
2014-Jul-26 09:33N 53°53' E 009°06'8 8.2
2014-Jul-26 08:33N 53°50' E 008°53'1110.6
2014-Jul-26 07:33N 53°57' E 008°39'1111.0
2014-Jul-26 06:33N 53°59' E 008°20'1010.4
2014-Jul-26 05:33N 53°59' E 008°03'48 9.6
2014-Jul-26 00:31N 53°47' E 006°43'9 9.6
2014-Jul-25 23:33N 53°45' E 006°28'1010.1
2014-Jul-25 22:33N 53°42' E 006°11'1010.5
2014-Jul-25 21:33N 53°39' E 005°55'1110.8
2014-Jul-25 20:33N 53°35' E 005°37'1110.9
2014-Jul-25 19:33N 53°32' E 005°20'1111.0
2014-Jul-25 18:33N 53°28' E 005°03'1111.4
2014-Jul-25 17:33N 53°23' E 004°45'3612.2
2014-Jul-25 14:33N 52°52' E 004°15'1111.1
2014-Jul-25 13:33N 52°43' E 004°04'1610.8
2014-Jul-25 12:05N 52°31' E 003°46'610.9
2014-Jul-25 11:33N 52°27' E 003°40'39 9.8
2014-Jul-25 07:32N 51°50' E 003°19'8 8.4
2014-Jul-25 06:33N 51°41' E 003°18'1010.3
2014-Jul-25 05:32N 51°32' E 003°26'9 9.7
2014-Jul-25 04:34N 51°26' E 003°38'1111.5
2014-Jul-25 03:33N 51°22' E 003°55'8 7.8
2014-Jul-25 02:33N 51°22' E 004°07'8 7.9
2014-Jul-25 01:34N 51°18' E 004°18'2 2.0
2014-Jul-25 00:34N 51°17' E 004°20'1 1.3
2014-Jul-24 23:31N 51°16' E 004°22'0 0.0
2014-Jul-24 22:28N 51°16' E 004°22'0 0.0
2014-Jul-24 21:31N 51°16' E 004°22'0 0.0
2014-Jul-24 20:31N 51°16' E 004°22'0 0.2
2014-Jul-24 19:33N 51°16' E 004°22'0 0.0
2014-Jul-24 18:33N 51°16' E 004°22'0 0.0
2014-Jul-24 17:33N 51°16' E 004°22'0 0.0
2014-Jul-24 16:33N 51°16' E 004°22'0 0.0
2014-Jul-24 15:33N 51°16' E 004°22'0 0.0
2014-Jul-24 14:30N 51°16' E 004°22'0 0.0
2014-Jul-24 13:33N 51°16' E 004°22'0 0.0
2014-Jul-24 12:33N 51°16' E 004°22'0 0.2
2014-Jul-24 11:33N 51°16' E 004°22'2 2.1
2014-Jul-24 10:33N 51°15' E 004°24'0 0.0
2014-Jul-24 09:33N 51°15' E 004°24'0 0.0
2014-Jul-24 08:33N 51°15' E 004°24'0 0.0
2014-Jul-24 07:33N 51°15' E 004°24'0 0.0
2014-Jul-24 06:33N 51°15' E 004°24'0 0.0
2014-Jul-24 05:33N 51°15' E 004°24'0 0.0
2014-Jul-24 04:33N 51°15' E 004°24'0 0.0
2014-Jul-24 03:30N 51°15' E 004°24'0 0.0
2014-Jul-24 02:33N 51°15' E 004°24'0 0.0
2014-Jul-24 01:33N 51°15' E 004°24'0 0.0
2014-Jul-24 00:33N 51°15' E 004°24'0 0.0
2014-Jul-23 23:32N 51°15' E 004°24'0 0.0
2014-Jul-23 22:32N 51°15' E 004°24'0 0.0
2014-Jul-23 21:32N 51°15' E 004°24'0 0.0
2014-Jul-23 19:32N 51°15' E 004°24'0 0.0
2014-Jul-23 18:32N 51°15' E 004°24'0 0.0
2014-Jul-23 17:32N 51°15' E 004°24'0 0.0
2014-Jul-23 16:32N 51°15' E 004°24'0 0.0
2014-Jul-23 15:32N 51°15' E 004°24'0 0.0
2014-Jul-23 14:32N 51°15' E 004°24'0 0.0
2014-Jul-23 13:32N 51°15' E 004°24'0 0.0
2014-Jul-23 12:32N 51°15' E 004°24'0 0.0
2014-Jul-23 11:32N 51°15' E 004°24'0 0.0
2014-Jul-23 10:32N 51°15' E 004°24'0 0.0
2014-Jul-23 09:32N 51°15' E 004°24'0 0.0
2014-Jul-23 08:32N 51°15' E 004°24'0 0.0
2014-Jul-23 07:32N 51°15' E 004°24'0 0.0
2014-Jul-23 06:32N 51°15' E 004°24'0 0.0
2014-Jul-23 05:32N 51°15' E 004°24'0 0.0
2014-Jul-23 04:32N 51°15' E 004°24'0 0.0
2014-Jul-23 03:32N 51°15' E 004°24'0 0.0
2014-Jul-23 02:32N 51°15' E 004°24'0 0.0
2014-Jul-23 01:33N 51°15' E 004°24'5 4.8
2014-Jul-23 00:33N 51°19' E 004°19'2 2.5
2014-Jul-22 23:34N 51°21' E 004°17'1 0.7
2014-Jul-22 22:34N 51°21' E 004°16'9 9.0
2014-Jul-22 21:34N 51°23' E 004°02'10 9.6
2014-Jul-22 20:34N 51°21' E 003°47'1212.0
2014-Jul-22 19:34N 51°25' E 003°29'1312.6
2014-Jul-22 18:33N 51°24' E 003°09'1110.7
2014-Jul-22 17:34N 51°22' E 002°52'11 9.4
2014-Jul-22 16:20N 51°20' E 002°34'1 1.0
2014-Jul-22 15:33N 51°20' E 002°33'0 0.0
2014-Jul-22 14:33N 51°20' E 002°33'0 0.0
2014-Jul-22 13:33N 51°20' E 002°33'0 0.0
2014-Jul-22 12:33N 51°20' E 002°33'0 0.0
2014-Jul-22 11:32N 51°20' E 002°33'0 0.0
2014-Jul-22 10:32N 51°20' E 002°33'0 0.0
2014-Jul-22 09:32N 51°20' E 002°33'0 0.0
2014-Jul-22 08:32N 51°20' E 002°33'5 4.9
2014-Jul-22 07:32N 51°20' E 002°25'1111.1
2014-Jul-22 06:34N 51°15' E 002°11'1111.0
2014-Jul-22 05:33N 51°09' E 001°55'1010.3
2014-Jul-22 04:33N 51°02' E 001°43'4610.3
2014-Jul-22 00:07N 50°26' E 000°59'5511.3
2014-Jul-21 19:16N 49°44' E 000°04'811.8
2014-Jul-21 18:33N 49°36' W 000°00'10 9.7
2014-Jul-21 17:33N 49°27' E 000°03'8 7.4
2014-Jul-21 16:32N 49°26' E 000°14'0 0.0
2014-Jul-21 15:32N 49°26' E 000°14'0 0.0
2014-Jul-21 14:32N 49°26' E 000°14'0 0.0
2014-Jul-21 13:32N 49°26' E 000°14'0 0.0
2014-Jul-21 12:32N 49°26' E 000°14'0 0.0
2014-Jul-21 11:32N 49°26' E 000°14'0 0.0
2014-Jul-21 10:14N 49°26' E 000°14'0 0.0
2014-Jul-21 09:32N 49°26' E 000°14'0 0.0
2014-Jul-21 08:14N 49°26' E 000°14'0 0.0
2014-Jul-21 07:26N 49°26' E 000°14'0 0.0
2014-Jul-21 06:29N 49°26' E 000°14'0 0.0
2014-Jul-21 05:32N 49°26' E 000°14'0 0.0
2014-Jul-21 04:23N 49°26' E 000°14'0 0.0
2014-Jul-21 03:32N 49°26' E 000°14'0 0.0
2014-Jul-21 02:17N 49°26' E 000°14'0 0.0
2014-Jul-21 01:32N 49°26' E 000°14'0 0.0
2014-Jul-21 00:26N 49°26' E 000°14'0 0.0
2014-Jul-20 23:20N 49°26' E 000°14'0 0.0
2014-Jul-20 22:29N 49°26' E 000°14'0 0.0
2014-Jul-20 20:10N 49°26' E 000°14'0 0.0
2014-Jul-20 19:31N 49°26' E 000°14'0 0.0
2014-Jul-20 18:10N 49°26' E 000°14'0 0.0
2014-Jul-20 17:19N 49°26' E 000°14'0 0.0
2014-Jul-20 16:22N 49°26' E 000°14'0 0.0
2014-Jul-20 15:28N 49°26' E 000°14'0 0.0
2014-Jul-20 14:28N 49°26' E 000°14'0 0.0
2014-Jul-20 13:33N 49°26' E 000°14'6 6.4
2014-Jul-20 12:33N 49°26' E 000°05'8 8.1
2014-Jul-20 11:33N 49°30' W 000°07'63 9.0
2014-Jul-20 04:33N 50°31' E 000°20'10 9.5
2014-Jul-20 03:31N 50°33' E 000°35'9 9.3
2014-Jul-20 02:33N 50°39' E 000°46'  

Dump ship's entire track history